createdAt,value
2019-03-17T00:00:50.640Z,99653.20
2019-03-17T00:01:58.015Z,99649.70
2019-03-17T00:03:04.787Z,99644.88
2019-03-17T00:04:10.479Z,99636.56
2019-03-17T00:05:16.235Z,99639.20
2019-03-17T00:06:23.635Z,99640.51
2019-03-17T00:07:31.243Z,99646.18
2019-03-17T00:08:37.086Z,99648.40
2019-03-17T00:09:42.786Z,99644.45
2019-03-17T00:10:48.928Z,99644.43
2019-03-17T00:11:54.797Z,99643.98
2019-03-17T00:13:00.500Z,99631.29
2019-03-17T00:14:06.956Z,99637.86
2019-03-17T00:15:13.846Z,99637.85
2019-03-17T00:16:20.886Z,99645.76
2019-03-17T00:17:27.767Z,99648.40
2019-03-17T00:18:33.898Z,99641.80
2019-03-17T00:19:40.664Z,99645.30
2019-03-17T00:20:48.351Z,99641.34
2019-03-17T00:21:54.335Z,99643.56
2019-03-17T00:23:01.059Z,99637.40
2019-03-17T00:24:07.726Z,99643.54
2019-03-17T00:25:14.528Z,99647.05
2019-03-17T00:26:21.199Z,99640.48
2019-03-17T00:27:27.406Z,99637.41
2019-03-17T00:28:33.827Z,99628.64
2019-03-17T00:29:40.746Z,99631.25
2019-03-17T00:30:46.746Z,99636.98
2019-03-17T00:31:53.657Z,99636.08
2019-03-17T00:32:59.705Z,99629.49
2019-03-17T00:34:05.447Z,99623.78
2019-03-17T00:35:13.177Z,99629.50
2019-03-17T00:36:19.045Z,99628.61
2019-03-17T00:37:24.846Z,99628.17
2019-03-17T00:38:30.585Z,99625.09
2019-03-17T00:39:36.278Z,99621.16
2019-03-17T00:40:41.987Z,99622.47
2019-03-17T00:41:47.818Z,99625.95
2019-03-17T00:42:53.533Z,99621.98
2019-03-17T00:43:59.819Z,99621.55
2019-03-17T00:45:12.510Z,99616.28
2019-03-17T00:46:19.000Z,99616.27
2019-03-17T00:47:25.789Z,99621.54
2019-03-17T00:48:33.367Z,99621.09
2019-03-17T00:49:39.387Z,99616.27
2019-03-17T00:50:48.770Z,99626.36
2019-03-17T00:51:55.485Z,99616.27
2019-03-17T00:53:01.346Z,99614.95
2019-03-17T00:54:07.955Z,99615.36
2019-03-17T00:55:14.489Z,99616.69
2019-03-17T00:56:20.497Z,99620.63
2019-03-17T00:57:27.147Z,99618.84
2019-03-17T00:58:33.009Z,99618.41
2019-03-17T00:59:39.618Z,99614.89
2019-03-17T01:00:45.803Z,99617.09
2019-03-17T01:01:51.780Z,99612.70
2019-03-17T01:02:57.935Z,99607.88
2019-03-17T01:04:03.634Z,99617.95
2019-03-17T01:05:10.377Z,99608.27
2019-03-17T01:06:16.136Z,99603.02
2019-03-17T01:07:21.863Z,99602.98
2019-03-17T01:08:27.568Z,99603.43
2019-03-17T01:09:34.816Z,99604.30
2019-03-17T01:10:40.580Z,99604.75
2019-03-17T01:11:46.257Z,99600.80
2019-03-17T01:12:52.179Z,99608.70
2019-03-17T01:13:58.699Z,99610.87
2019-03-17T01:15:07.955Z,99611.72
2019-03-17T01:16:14.698Z,99604.70
2019-03-17T01:17:22.719Z,99603.39
2019-03-17T01:18:28.539Z,99601.62
2019-03-17T01:19:35.458Z,99604.70
2019-03-17T01:20:41.586Z,99606.44
2019-03-17T01:21:47.969Z,99605.13
2019-03-17T01:22:54.928Z,99601.61
2019-03-17T01:24:01.750Z,99602.91
2019-03-17T01:25:11.141Z,99601.59
2019-03-17T01:26:18.258Z,99600.27
2019-03-17T01:27:24.470Z,99598.52
2019-03-17T01:28:30.577Z,99596.32
2019-03-17T01:29:38.638Z,99599.83
2019-03-17T01:30:44.668Z,99600.25
2019-03-17T01:31:51.188Z,99601.12
2019-03-17T01:32:57.018Z,99600.22
2019-03-17T01:34:02.859Z,99591.41
2019-03-17T01:35:10.199Z,99590.53
2019-03-17T01:36:16.166Z,99591.44
2019-03-17T01:37:21.929Z,99587.45
2019-03-17T01:38:27.648Z,99583.07
2019-03-17T01:39:34.328Z,99579.09
2019-03-17T01:40:40.149Z,99582.61
2019-03-17T01:41:45.869Z,99577.77
2019-03-17T01:42:51.585Z,99583.92
2019-03-17T01:43:57.290Z,99579.97
2019-03-17T01:45:03.559Z,99576.89
2019-03-17T01:46:09.478Z,99577.33
2019-03-17T01:47:15.429Z,99582.17
2019-03-17T01:48:23.009Z,99582.14
2019-03-17T01:49:28.852Z,99565.44
2019-03-17T01:50:35.342Z,99565.89
2019-03-17T01:51:41.749Z,99565.89
2019-03-17T01:52:47.441Z,99565.85
2019-03-17T01:53:54.531Z,99566.30
2019-03-17T01:55:01.020Z,99561.88
2019-03-17T01:56:06.835Z,99560.99
2019-03-17T01:57:13.417Z,99555.75
2019-03-17T01:58:21.270Z,99558.39
2019-03-17T01:59:27.229Z,99557.04
2019-03-17T02:00:55.440Z,99557.01
2019-03-17T02:02:25.771Z,99547.34
2019-03-17T02:04:45.607Z,99554.38
2019-03-17T02:04:52.221Z,99548.66
2019-03-17T02:05:57.950Z,99553.05
2019-03-17T02:07:05.219Z,99549.50
2019-03-17T02:08:11.029Z,99547.31
2019-03-17T02:09:16.731Z,99545.55
2019-03-17T02:10:22.410Z,99552.55
2019-03-17T02:11:28.122Z,99554.74
2019-03-17T02:12:33.819Z,99549.91
2019-03-17T02:13:39.520Z,99546.40
2019-03-17T02:14:46.580Z,99542.44
2019-03-17T02:15:52.780Z,99542.84
2019-03-17T02:16:58.817Z,99539.80
2019-03-17T02:18:05.909Z,99540.21
2019-03-17T02:19:13.281Z,99539.33
2019-03-17T02:20:19.350Z,99533.62
2019-03-17T02:21:26.080Z,99536.25
2019-03-17T02:22:33.224Z,99535.81
2019-03-17T02:23:40.507Z,99529.63
2019-03-17T02:24:46.492Z,99535.34
2019-03-17T02:25:52.770Z,99536.66
2019-03-17T02:27:00.030Z,99534.94
2019-03-17T02:28:06.160Z,99535.85
2019-03-17T02:29:12.361Z,99541.13
2019-03-17T02:30:19.121Z,99537.17
2019-03-17T02:31:25.271Z,99540.28
2019-03-17T02:32:31.235Z,99537.64
2019-03-17T02:33:37.050Z,99542.07
2019-03-17T02:34:42.735Z,99543.39
2019-03-17T02:35:49.789Z,99541.19
2019-03-17T02:36:55.491Z,99534.60
2019-03-17T02:38:01.205Z,99539.47
2019-03-17T02:39:07.511Z,99539.88
2019-03-17T02:40:13.302Z,99538.55
2019-03-17T02:41:18.982Z,99533.75
2019-03-17T02:42:24.704Z,99537.71
2019-03-17T02:43:30.496Z,99539.47
2019-03-17T02:44:40.534Z,99542.98
2019-03-17T02:45:47.961Z,99539.91
2019-03-17T02:46:54.403Z,99539.03
2019-03-17T02:48:00.572Z,99541.66
2019-03-17T02:49:07.302Z,99535.92
2019-03-17T02:50:13.903Z,99539.03
2019-03-17T02:51:20.112Z,99540.34
2019-03-17T02:52:26.511Z,99536.83
2019-03-17T02:53:33.103Z,99535.92
2019-03-17T02:54:38.801Z,99535.48
2019-03-17T02:55:45.149Z,99535.08
2019-03-17T02:56:53.532Z,99530.65
2019-03-17T02:57:59.743Z,99537.27
2019-03-17T02:59:05.971Z,99542.11
2019-03-17T03:00:13.102Z,99527.17
2019-03-17T03:01:18.742Z,99527.17
2019-03-17T03:02:25.773Z,99524.94
2019-03-17T03:03:32.803Z,99531.05
2019-03-17T03:04:38.510Z,99531.97
2019-03-17T03:05:54.715Z,99529.73
2019-03-17T03:06:51.522Z,99532.41
2019-03-17T03:07:57.330Z,99531.53
2019-03-17T03:09:04.581Z,99528.02
2019-03-17T03:10:10.356Z,99526.25
2019-03-17T03:11:16.020Z,99525.81
2019-03-17T03:12:21.733Z,99532.84
2019-03-17T03:13:27.431Z,99527.13
2019-03-17T03:14:33.083Z,99528.89
2019-03-17T03:15:40.064Z,99530.17
2019-03-17T03:16:47.442Z,99535.45
2019-03-17T03:17:53.290Z,99529.30
2019-03-17T03:19:00.464Z,99523.58
2019-03-17T03:20:09.544Z,99523.55
2019-03-17T03:21:16.270Z,99522.67
2019-03-17T03:22:22.872Z,99522.67
2019-03-17T03:23:30.055Z,99516.52
2019-03-17T03:24:37.041Z,99519.16
2019-03-17T03:25:44.252Z,99520.47
2019-03-17T03:26:51.632Z,99523.11
2019-03-17T03:27:57.974Z,99518.72
2019-03-17T03:29:04.324Z,99518.27
2019-03-17T03:30:15.104Z,99511.24
2019-03-17T03:31:21.104Z,99512.13
2019-03-17T03:32:27.364Z,99519.63
2019-03-17T03:33:33.202Z,99505.97
2019-03-17T03:34:38.902Z,99511.28
2019-03-17T03:35:44.636Z,99506.45
2019-03-17T03:36:50.335Z,99508.20
2019-03-17T03:37:56.101Z,99508.61
2019-03-17T03:39:01.751Z,99510.80
2019-03-17T03:40:11.791Z,99511.64
2019-03-17T03:41:17.670Z,99516.48
2019-03-17T03:42:23.416Z,99511.61
2019-03-17T03:43:29.116Z,99508.13
2019-03-17T03:44:34.830Z,99513.84
2019-03-17T03:45:41.247Z,99509.45
2019-03-17T03:46:47.272Z,99509.01
2019-03-17T03:47:53.828Z,99505.50
2019-03-17T03:49:00.475Z,99500.22
2019-03-17T03:50:09.384Z,99498.91
2019-03-17T03:51:16.925Z,99491.84
2019-03-17T03:52:23.794Z,99497.55
2019-03-17T03:53:29.813Z,99497.47
2019-03-17T03:54:38.602Z,99495.31
2019-03-17T03:55:45.063Z,99492.23
2019-03-17T03:56:51.171Z,99499.27
2019-03-17T03:57:58.262Z,99497.50
2019-03-17T03:59:04.422Z,99501.91
2019-03-17T04:00:16.285Z,99501.91
2019-03-17T04:01:23.510Z,99498.39
2019-03-17T04:02:29.424Z,99508.49
2019-03-17T04:03:35.750Z,99498.38
2019-03-17T04:04:41.445Z,99493.55
2019-03-17T04:05:47.255Z,99488.72
2019-03-17T04:06:52.947Z,99487.40
2019-03-17T04:07:58.614Z,99490.87
2019-03-17T04:09:05.902Z,99483.84
2019-03-17T04:10:12.254Z,99493.52
2019-03-17T04:11:18.952Z,99493.95
2019-03-17T04:12:24.629Z,99489.95
2019-03-17T04:13:30.334Z,99491.27
2019-03-17T04:14:36.003Z,99476.33
2019-03-17T04:15:41.741Z,99483.32
2019-03-17T04:16:48.664Z,99480.72
2019-03-17T04:17:54.696Z,99477.20
2019-03-17T04:19:00.742Z,99482.48
2019-03-17T04:20:10.593Z,99476.33
2019-03-17T04:21:17.864Z,99477.61
2019-03-17T04:22:23.733Z,99476.28
2019-03-17T04:23:30.675Z,99474.53
2019-03-17T04:24:37.144Z,99480.28
2019-03-17T04:25:43.184Z,99476.77
2019-03-17T04:26:49.610Z,99474.97
2019-03-17T04:27:55.494Z,99480.72
2019-03-17T04:29:01.944Z,99477.21
2019-03-17T04:30:11.712Z,99478.09
2019-03-17T04:31:17.698Z,99478.09
2019-03-17T04:32:25.509Z,99477.65
2019-03-17T04:33:32.665Z,99473.25
2019-03-17T04:34:38.633Z,99475.48
2019-03-17T04:35:44.373Z,99464.06
2019-03-17T04:36:50.107Z,99467.14
2019-03-17T04:37:55.775Z,99468.02
2019-03-17T04:39:01.428Z,99467.58
2019-03-17T04:40:09.265Z,99473.73
2019-03-17T04:41:14.955Z,99468.90
2019-03-17T04:42:20.673Z,99466.66
2019-03-17T04:43:26.383Z,99471.94
2019-03-17T04:44:32.205Z,99467.09
2019-03-17T04:45:38.467Z,99469.30
2019-03-17T04:46:45.995Z,99464.91
2019-03-17T04:47:52.131Z,99464.46
2019-03-17T04:48:59.411Z,99454.84
2019-03-17T04:50:09.477Z,99465.82
2019-03-17T04:51:15.324Z,99453.52
2019-03-17T04:52:22.163Z,99455.70
2019-03-17T04:53:29.036Z,99453.91
2019-03-17T04:54:34.784Z,99462.30
2019-03-17T04:55:42.084Z,99453.07
2019-03-17T04:56:49.077Z,99444.23
2019-03-17T04:57:58.558Z,99447.76
2019-03-17T04:59:05.914Z,99452.59
2019-03-17T05:00:13.961Z,99450.39
2019-03-17T05:01:20.156Z,99455.23
2019-03-17T05:02:27.527Z,99453.91
2019-03-17T05:03:35.204Z,99449.03
2019-03-17T05:04:41.118Z,99449.91
2019-03-17T05:05:46.834Z,99452.54
2019-03-17T05:06:53.248Z,99451.63
2019-03-17T05:07:59.046Z,99453.42
2019-03-17T05:09:05.656Z,99448.98
2019-03-17T05:10:13.523Z,99447.67
2019-03-17T05:11:19.224Z,99446.83
2019-03-17T05:12:24.901Z,99443.72
2019-03-17T05:13:31.606Z,99442.39
2019-03-17T05:14:37.286Z,99446.34
2019-03-17T05:15:43.934Z,99448.50
2019-03-17T05:16:51.046Z,99438.39
2019-03-17T05:17:57.454Z,99440.98
2019-03-17T05:19:04.482Z,99441.42
2019-03-17T05:20:12.011Z,99441.02
2019-03-17T05:21:18.970Z,99441.02
2019-03-17T05:22:26.186Z,99442.30
2019-03-17T05:23:32.008Z,99437.91
2019-03-17T05:24:38.476Z,99436.14
2019-03-17T05:25:45.725Z,99438.34
2019-03-17T05:26:52.077Z,99440.97
2019-03-17T05:27:59.566Z,99429.55
2019-03-17T05:29:06.356Z,99432.14
2019-03-17T05:30:15.457Z,99435.17
2019-03-17T05:31:22.867Z,99428.08
2019-03-17T05:32:29.347Z,99433.34
2019-03-17T05:33:35.911Z,99434.19
2019-03-17T05:34:41.937Z,99429.83
2019-03-17T05:35:47.790Z,99425.00
2019-03-17T05:37:05.526Z,99429.39
2019-03-17T05:38:01.808Z,99429.39
2019-03-17T05:39:08.537Z,99425.43
2019-03-17T05:40:14.358Z,99424.50
2019-03-17T05:41:20.109Z,99426.27
2019-03-17T05:42:25.946Z,99419.67
2019-03-17T05:43:31.657Z,99417.91
2019-03-17T05:44:37.660Z,99425.77
2019-03-17T05:45:44.290Z,99416.09
2019-03-17T05:46:51.398Z,99420.48
2019-03-17T05:47:57.527Z,99415.20
2019-03-17T05:49:04.397Z,99420.01
2019-03-17T05:50:12.227Z,99422.23
2019-03-17T05:51:18.506Z,99427.03
2019-03-17T05:52:27.388Z,99426.19
2019-03-17T05:53:34.115Z,99425.69
2019-03-17T05:54:40.597Z,99425.64
2019-03-17T05:55:46.907Z,99425.59
2019-03-17T05:56:54.092Z,99429.55
2019-03-17T05:58:00.515Z,99430.42
2019-03-17T05:59:07.676Z,99430.41
2019-03-17T06:00:18.227Z,99427.67
2019-03-17T06:01:25.347Z,99425.84
2019-03-17T06:02:32.958Z,99424.91
2019-03-17T06:04:05.109Z,99425.34
2019-03-17T06:05:14.818Z,99428.42
2019-03-17T06:06:31.151Z,99427.49
2019-03-17T06:07:37.591Z,99423.09
2019-03-17T06:08:44.763Z,99424.86
2019-03-17T06:09:51.764Z,99425.78
2019-03-17T06:10:57.678Z,99422.27
2019-03-17T06:12:03.488Z,99424.86
2019-03-17T06:13:09.466Z,99427.94
2019-03-17T06:14:15.344Z,99429.20
2019-03-17T06:15:22.079Z,99422.59
2019-03-17T06:16:27.738Z,99427.00
2019-03-17T06:17:34.368Z,99429.13
2019-03-17T06:18:40.958Z,99432.65
2019-03-17T06:19:46.977Z,99432.65
2019-03-17T06:20:53.639Z,99429.58
2019-03-17T06:22:01.019Z,99427.81
2019-03-17T06:23:07.209Z,99427.38
2019-03-17T06:24:14.040Z,99427.36
2019-03-17T06:25:21.727Z,99427.27
2019-03-17T06:26:29.777Z,99425.05
2019-03-17T06:27:36.240Z,99425.86
2019-03-17T06:28:42.489Z,99428.06
2019-03-17T06:29:48.676Z,99428.12
2019-03-17T06:30:55.389Z,99424.11
2019-03-17T06:32:02.428Z,99430.27
2019-03-17T06:33:08.386Z,99425.37
2019-03-17T06:34:15.426Z,99432.78
2019-03-17T06:35:21.474Z,99427.48
2019-03-17T06:36:27.245Z,99426.56
2019-03-17T06:37:32.950Z,99424.34
2019-03-17T06:38:38.809Z,99431.33
2019-03-17T06:39:44.588Z,99432.64
2019-03-17T06:40:50.405Z,99423.77
2019-03-17T06:41:57.519Z,99432.45
2019-03-17T06:43:03.949Z,99427.53
2019-03-17T06:44:10.280Z,99424.83
2019-03-17T06:45:16.525Z,99428.72
2019-03-17T06:46:24.539Z,99426.89
2019-03-17T06:47:31.920Z,99424.22
2019-03-17T06:48:38.909Z,99422.84
2019-03-17T06:49:45.020Z,99430.33
2019-03-17T06:50:53.810Z,99428.86
2019-03-17T06:52:11.786Z,99425.71
2019-03-17T06:53:19.879Z,99424.74
2019-03-17T06:54:25.811Z,99423.27
2019-03-17T06:55:31.780Z,99431.03
2019-03-17T06:56:57.968Z,99423.25
2019-03-17T06:58:05.944Z,99424.66
2019-03-17T06:59:12.554Z,99426.27
2019-03-17T07:00:23.419Z,99419.91
2019-03-17T07:01:29.996Z,99420.31
2019-03-17T07:02:36.484Z,99420.31
2019-03-17T07:03:43.567Z,99420.71
2019-03-17T07:04:54.877Z,99417.39
2019-03-17T07:06:00.899Z,99422.55
2019-03-17T07:07:06.811Z,99402.95
2019-03-17T07:08:12.751Z,99402.95
2019-03-17T07:09:19.040Z,99402.73
2019-03-17T07:10:25.161Z,99422.51
2019-03-17T07:11:30.902Z,99422.51
2019-03-17T07:12:39.811Z,99412.51
2019-03-17T07:13:47.224Z,99412.51
2019-03-17T07:14:53.394Z,99425.50
2019-03-17T07:15:59.731Z,99428.16
2019-03-17T07:17:07.018Z,99424.26
2019-03-17T07:18:15.269Z,99423.11
2019-03-17T07:19:22.819Z,99423.11
2019-03-17T07:20:29.646Z,99418.30
2019-03-17T07:21:36.046Z,99412.47
2019-03-17T07:22:42.340Z,99417.42
2019-03-17T07:23:48.191Z,99419.64
2019-03-17T07:24:54.058Z,99414.02
2019-03-17T07:26:01.077Z,99402.81
2019-03-17T07:27:07.551Z,99402.81
2019-03-17T07:28:14.170Z,99407.12
2019-03-17T07:29:20.396Z,99425.66
2019-03-17T07:30:26.382Z,99424.20
2019-03-17T07:31:33.561Z,99417.41
2019-03-17T07:32:40.621Z,99418.39
2019-03-17T07:33:46.479Z,99416.89
2019-03-17T07:34:53.071Z,99422.14
2019-03-17T07:35:59.280Z,99418.61
2019-03-17T07:37:06.533Z,99418.61
2019-03-17T07:38:12.239Z,99415.91
2019-03-17T07:39:18.091Z,99416.73
2019-03-17T07:40:23.861Z,99422.94
2019-03-17T07:41:29.737Z,99417.19
2019-03-17T07:42:35.703Z,99414.98
2019-03-17T07:43:41.412Z,99414.22
2019-03-17T07:44:48.462Z,99411.98
2019-03-17T07:45:54.642Z,99412.86
2019-03-17T07:47:01.382Z,99416.25
2019-03-17T07:48:08.001Z,99415.36
2019-03-17T07:49:14.372Z,99414.27
2019-03-17T07:50:20.759Z,99411.41
2019-03-17T07:51:27.071Z,99410.53
2019-03-17T07:52:32.912Z,99414.14
2019-03-17T07:53:38.712Z,99409.26
2019-03-17T07:54:45.360Z,99405.23
2019-03-17T07:55:51.829Z,99401.81
2019-03-17T07:56:58.282Z,99400.33
2019-03-17T07:58:04.603Z,99403.53
2019-03-17T07:59:10.922Z,99406.31
2019-03-17T08:00:17.432Z,99403.48
2019-03-17T08:01:23.793Z,99402.29
2019-03-17T08:02:30.093Z,99404.47
2019-03-17T08:03:36.960Z,99400.41
2019-03-17T08:04:46.102Z,99405.66
2019-03-17T08:05:50.411Z,99399.34
2019-03-17T08:06:57.313Z,99386.70
2019-03-17T08:08:09.407Z,99398.26
2019-03-17T08:09:10.742Z,99373.74
2019-03-17T08:10:17.492Z,99397.46
2019-03-17T08:11:23.413Z,99392.53
2019-03-17T08:12:29.123Z,99384.63
2019-03-17T08:13:36.192Z,99394.36
2019-03-17T08:14:44.174Z,99391.73
2019-03-17T08:15:50.013Z,99405.31
2019-03-17T08:16:57.000Z,99399.00
2019-03-17T08:18:04.914Z,99392.28
2019-03-17T08:19:11.282Z,99390.23
2019-03-17T08:20:20.091Z,99380.38
2019-03-17T08:21:26.293Z,99393.28
2019-03-17T08:22:33.057Z,99389.86
2019-03-17T08:23:39.601Z,99384.25
2019-03-17T08:24:45.934Z,99361.03
2019-03-17T08:25:52.593Z,99382.02
2019-03-17T08:26:58.674Z,99388.63
2019-03-17T08:28:05.025Z,99384.65
2019-03-17T08:29:11.623Z,99370.02
2019-03-17T08:30:19.265Z,99370.02
2019-03-17T08:31:26.936Z,99389.59
2019-03-17T08:32:34.763Z,99389.59
2019-03-17T08:33:48.342Z,99389.70
2019-03-17T08:34:54.293Z,99397.66
2019-03-17T08:36:00.203Z,99392.26
2019-03-17T08:37:06.042Z,99392.26
2019-03-17T08:38:21.421Z,99399.48
2019-03-17T08:39:19.314Z,99394.38
2019-03-17T08:40:25.144Z,99394.48
2019-03-17T08:41:31.123Z,99392.80
2019-03-17T08:42:37.976Z,99391.33
2019-03-17T08:43:53.790Z,99381.55
2019-03-17T08:44:51.634Z,99389.43
2019-03-17T08:45:58.626Z,99392.86
2019-03-17T08:47:04.453Z,99399.34
2019-03-17T08:48:10.439Z,99395.57
2019-03-17T08:49:17.664Z,99386.02
2019-03-17T08:50:38.211Z,99396.77
2019-03-17T08:51:44.341Z,99406.06
2019-03-17T08:52:50.749Z,99403.77
2019-03-17T08:53:57.954Z,99404.13
2019-03-17T08:55:05.665Z,99404.48
2019-03-17T08:56:12.132Z,99405.72
2019-03-17T08:57:18.627Z,99399.89
2019-03-17T08:58:24.683Z,99402.97
2019-03-17T08:59:31.225Z,99399.18
2019-03-17T09:00:38.716Z,99402.22
2019-03-17T09:01:47.735Z,99409.06
2019-03-17T09:02:53.676Z,99409.06
2019-03-17T09:04:03.383Z,99406.44
2019-03-17T09:05:11.874Z,99405.43
2019-03-17T09:06:18.617Z,99405.43
2019-03-17T09:07:24.582Z,99403.56
2019-03-17T09:08:35.398Z,99403.56
2019-03-17T09:09:38.143Z,99405.63
2019-03-17T09:10:43.975Z,99381.92
2019-03-17T09:11:51.952Z,99381.92
2019-03-17T09:12:58.065Z,99394.80
2019-03-17T09:14:04.323Z,99393.67
2019-03-17T09:15:11.005Z,99373.61
2019-03-17T09:16:18.933Z,99373.61
2019-03-17T09:17:25.485Z,99393.33
2019-03-17T09:18:31.399Z,99389.94
2019-03-17T09:19:37.335Z,99389.69
2019-03-17T09:20:43.958Z,99384.60
2019-03-17T09:21:53.283Z,99382.70
2019-03-17T09:23:00.605Z,99384.11
2019-03-17T09:24:16.719Z,99381.61
2019-03-17T09:25:15.585Z,99370.86
2019-03-17T09:26:22.455Z,99379.97
2019-03-17T09:27:28.756Z,99378.00
2019-03-17T09:28:36.862Z,99379.29
2019-03-17T09:29:44.680Z,99386.85
2019-03-17T09:30:50.594Z,99374.55
2019-03-17T09:31:56.755Z,99368.08
2019-03-17T09:33:04.024Z,99354.66
2019-03-17T09:34:09.939Z,99366.30
2019-03-17T09:35:16.697Z,99370.85
2019-03-17T09:36:23.035Z,99360.23
2019-03-17T09:37:30.386Z,99367.72
2019-03-17T09:38:46.823Z,99358.58
2019-03-17T09:39:44.012Z,99351.27
2019-03-17T09:40:51.626Z,99355.20
2019-03-17T09:41:57.365Z,99353.16
2019-03-17T09:43:03.632Z,99351.66
2019-03-17T09:44:30.044Z,99349.45
2019-03-17T09:45:59.927Z,99343.33
2019-03-17T09:47:15.623Z,99352.87
2019-03-17T09:48:25.825Z,99354.20
2019-03-17T09:49:31.966Z,99349.70
2019-03-17T09:50:40.659Z,99351.03
2019-03-17T09:51:51.736Z,99351.03
2019-03-17T09:53:01.160Z,99338.22
2019-03-17T09:54:10.652Z,99337.22
2019-03-17T09:55:19.956Z,99331.56
2019-03-17T09:56:26.446Z,99330.11
2019-03-17T09:57:32.714Z,99328.94
2019-03-17T09:58:38.979Z,99329.94
2019-03-17T09:59:45.163Z,99331.06
2019-03-17T10:00:52.056Z,99330.77
2019-03-17T10:01:58.765Z,99322.95
2019-03-17T10:03:04.878Z,99329.69
2019-03-17T10:04:11.952Z,99324.77
2019-03-17T10:05:18.470Z,99320.24
2019-03-17T10:06:24.382Z,99320.45
2019-03-17T10:07:30.527Z,99322.82
2019-03-17T10:08:38.504Z,99311.66
2019-03-17T10:09:44.496Z,99311.58
2019-03-17T10:10:50.714Z,99313.63
2019-03-17T10:13:28.092Z,99316.70
2019-03-17T10:14:39.532Z,99322.48
2019-03-17T10:15:47.567Z,99313.20
2019-03-17T10:17:24.779Z,99319.11
2019-03-17T10:18:31.074Z,99315.86
2019-03-17T10:19:37.720Z,99314.80
2019-03-17T10:20:44.418Z,99312.96
2019-03-17T10:21:50.878Z,99308.78
2019-03-17T10:23:00.177Z,99307.66
2019-03-17T10:24:12.827Z,99306.55
2019-03-17T10:25:19.297Z,99308.37
2019-03-17T10:26:27.270Z,99311.61
2019-03-17T10:27:33.900Z,99309.41
2019-03-17T10:28:40.175Z,99308.98
2019-03-17T10:29:47.859Z,99302.75
2019-03-17T10:30:53.546Z,99304.05
2019-03-17T10:31:59.770Z,99299.87
2019-03-17T10:33:06.332Z,99299.11
2019-03-17T10:34:12.639Z,99293.23
2019-03-17T10:35:19.829Z,99296.18
2019-03-17T10:36:25.887Z,99292.19
2019-03-17T10:37:31.800Z,99295.23
2019-03-17T10:38:37.517Z,99301.34
2019-03-17T10:39:43.209Z,99303.12
2019-03-17T10:40:49.028Z,99302.04
2019-03-17T10:42:17.838Z,99296.00
2019-03-17T10:43:50.823Z,99309.91
2019-03-17T10:44:56.678Z,99323.98
2019-03-17T10:46:02.607Z,99307.87
2019-03-17T10:47:08.698Z,99308.55
2019-03-17T10:48:15.967Z,99308.17
2019-03-17T10:49:21.718Z,99307.15
2019-03-17T10:50:28.831Z,99310.53
2019-03-17T10:51:42.719Z,99306.40
2019-03-17T10:52:50.314Z,99313.77
2019-03-17T10:53:56.998Z,99312.97
2019-03-17T10:55:04.288Z,99318.64
2019-03-17T10:56:10.586Z,99311.64
2019-03-17T10:57:17.519Z,99311.30
2019-03-17T10:58:24.815Z,99308.45
2019-03-17T10:59:36.845Z,99305.76
2019-03-17T11:00:43.484Z,99310.47
2019-03-17T11:01:50.238Z,99314.08
2019-03-17T11:02:59.841Z,99311.42
2019-03-17T11:04:07.648Z,99303.59
2019-03-17T11:05:15.117Z,99303.62
2019-03-17T11:06:22.740Z,99307.80
2019-03-17T11:07:28.889Z,99308.47
2019-03-17T11:08:37.381Z,99302.39
2019-03-17T11:09:44.900Z,99305.51
2019-03-17T11:10:52.399Z,99300.77
2019-03-17T11:11:58.729Z,99302.02
2019-03-17T11:13:04.611Z,99311.64
2019-03-17T11:14:10.447Z,99310.39
2019-03-17T11:15:19.556Z,99314.87
2019-03-17T11:16:26.743Z,99307.35
2019-03-17T11:17:55.241Z,99306.28
2019-03-17T11:19:03.059Z,99308.90
2019-03-17T11:20:16.025Z,99308.48
2019-03-17T11:21:23.739Z,99308.19
2019-03-17T11:22:30.430Z,99313.31
2019-03-17T11:23:37.555Z,99312.78
2019-03-17T11:24:55.524Z,99304.99
2019-03-17T11:26:03.015Z,99309.20
2019-03-17T11:27:10.972Z,99313.38
2019-03-17T11:28:17.133Z,99316.75
2019-03-17T11:29:24.012Z,99307.23
2019-03-17T11:30:30.271Z,99310.23
2019-03-17T11:31:36.699Z,99305.17
2019-03-17T11:32:45.592Z,99308.41
2019-03-17T11:34:34.899Z,99301.39
2019-03-17T11:35:45.130Z,99305.34
2019-03-17T11:36:51.359Z,99300.68
2019-03-17T11:37:57.483Z,99307.80
2019-03-17T11:39:03.619Z,99306.51
2019-03-17T11:40:18.350Z,99303.09
2019-03-17T11:41:24.272Z,99307.88
2019-03-17T11:42:30.113Z,99303.84
2019-03-17T11:43:35.830Z,99307.88
2019-03-17T11:44:41.520Z,99310.33
2019-03-17T11:45:47.201Z,99307.70
2019-03-17T11:46:53.401Z,99310.16
2019-03-17T11:48:01.000Z,99306.76
2019-03-17T11:49:08.283Z,99295.98
2019-03-17T11:50:20.798Z,99308.02
2019-03-17T11:51:43.821Z,99302.14
2019-03-17T11:52:52.314Z,99300.02
2019-03-17T11:53:58.021Z,99299.34
2019-03-17T11:55:04.500Z,99304.19
2019-03-17T11:56:10.420Z,99308.22
2019-03-17T11:57:17.130Z,99303.18
2019-03-17T11:58:24.491Z,99298.89
2019-03-17T11:59:30.590Z,99299.93
2019-03-17T12:00:36.984Z,99301.72
2019-03-17T12:01:43.551Z,99293.55
2019-03-17T12:02:49.465Z,99297.51
2019-03-17T12:03:55.822Z,99293.17
2019-03-17T12:05:03.205Z,99291.06
2019-03-17T12:06:09.489Z,99288.94
2019-03-17T12:07:15.274Z,99293.34
2019-03-17T12:08:21.271Z,99284.12
2019-03-17T12:09:29.255Z,99296.69
2019-03-17T12:10:34.788Z,99297.05
2019-03-17T12:11:40.611Z,99293.86
2019-03-17T12:12:46.529Z,99300.01
2019-03-17T12:13:52.271Z,99277.41
2019-03-17T12:14:57.992Z,99290.73
2019-03-17T12:16:03.803Z,99283.78
2019-03-17T12:17:09.531Z,99293.16
2019-03-17T12:18:15.248Z,99309.50
2019-03-17T12:19:21.948Z,99292.56
2019-03-17T12:20:29.261Z,99285.53
2019-03-17T12:21:36.435Z,99291.66
2019-03-17T12:22:43.212Z,99294.61
2019-03-17T12:23:50.092Z,99291.14
2019-03-17T12:24:57.332Z,99288.40
2019-03-17T12:26:03.334Z,99291.06
2019-03-17T12:27:09.742Z,99290.27
2019-03-17T12:28:16.794Z,99287.73
2019-03-17T12:29:22.961Z,99294.90
2019-03-17T12:30:30.141Z,99290.49
2019-03-17T12:31:42.242Z,99299.69
2019-03-17T12:32:49.949Z,99299.19
2019-03-17T12:33:56.161Z,99294.82
2019-03-17T12:35:03.243Z,99301.60
2019-03-17T12:36:09.802Z,99290.20
2019-03-17T12:37:15.962Z,99310.67
2019-03-17T12:38:21.683Z,99306.13
2019-03-17T12:39:27.765Z,99299.86
2019-03-17T12:40:33.588Z,99300.48
2019-03-17T12:41:39.371Z,99308.96
2019-03-17T12:42:45.172Z,99307.55
2019-03-17T12:43:50.912Z,99300.73
2019-03-17T12:44:57.602Z,99306.05
2019-03-17T12:46:05.142Z,99311.26
2019-03-17T12:47:11.794Z,99301.27
2019-03-17T12:48:18.892Z,99307.39
2019-03-17T12:49:26.083Z,99293.56
2019-03-17T12:50:33.713Z,99296.11
2019-03-17T12:51:39.735Z,99304.44
2019-03-17T12:52:45.859Z,99309.59
2019-03-17T12:53:52.312Z,99300.09
2019-03-17T12:54:58.593Z,99295.93
2019-03-17T12:56:05.811Z,99298.42
2019-03-17T12:57:12.864Z,99297.33
2019-03-17T12:58:20.667Z,99290.55
2019-03-17T12:59:28.950Z,99292.53
2019-03-17T13:00:35.193Z,99286.89
2019-03-17T13:01:41.717Z,99284.36
2019-03-17T13:02:47.965Z,99283.87
2019-03-17T13:03:53.751Z,99283.09
2019-03-17T13:05:00.288Z,99278.69
2019-03-17T13:06:08.364Z,99278.91
2019-03-17T13:07:14.520Z,99271.09
2019-03-17T13:08:20.251Z,99275.73
2019-03-17T13:09:26.049Z,99278.91
2019-03-17T13:10:31.818Z,99280.04
2019-03-17T13:11:37.603Z,99290.88